Time;durP1;ratioP1;P1;durP2;ratioP2;P2;SDS_P1;SDS_P2;PMS_P1;PMS_P2;Temp;Humidity;BMP_temperature;BMP_pressure;BME280_temperature;BME280_humidity;BME280_pressure;Samples;Min_cycle;Max_cycle;Signal;HPM_P1;HPM_P2
2022/02/06 00:01:33;;;;;;;5.72;3.70;;;;;;;1.94;78.39;99309.12;1661479;85;21061;-79
2022/02/06 00:03:59;;;;;;;7.43;4.30;;;;;;;1.95;78.29;99308.10;1677691;85;21002;-77
2022/02/06 00:06:31;;;;;;;5.45;4.40;;;;;;;1.95;78.27;99300.15;1684329;85;21002;-84
2022/02/06 00:08:56;;;;;;;6.00;4.30;;;;;;;1.97;78.28;99293.30;1679153;85;21551;-86
2022/02/06 00:11:23;;;;;;;6.70;4.25;;;;;;;1.98;78.10;99305.54;1679281;85;21096;-83
2022/02/06 00:13:50;;;;;;;6.90;4.10;;;;;;;2.00;78.10;99295.05;1670902;85;21013;-86
2022/02/06 00:16:16;;;;;;;10.03;6.47;;;;;;;2.03;78.10;99303.09;1657525;86;22161;-84
2022/02/06 00:18:44;;;;;;;7.45;4.25;;;;;;;2.06;78.03;99306.69;1637134;87;21086;-91
2022/02/06 00:21:15;;;;;;;6.25;4.12;;;;;;;2.06;77.93;99302.17;1637287;85;21666;-88
2022/02/06 00:23:41;;;;;;;12.20;4.75;;;;;;;2.07;77.90;99302.98;1637122;87;21022;-89
2022/02/06 00:26:32;;;;;;;11.43;4.20;;;;;;;2.08;77.83;99304.62;1614760;88;21031;-85
2022/02/06 00:28:59;;;;;;;10.15;5.33;;;;;;;2.09;77.83;99295.66;1629896;87;21055;-81
2022/02/06 00:31:32;;;;;;;8.23;5.20;;;;;;;2.11;77.82;99301.05;1632164;87;21010;-84
2022/02/06 00:39:15;;;;;;;6.65;4.62;;;;;;;2.12;77.68;99293.91;1633650;87;21677;-77
2022/02/06 00:41:42;;;;;;;6.22;4.47;;;;;;;2.13;77.71;99306.16;1668944;85;21635;-79
2022/02/06 00:44:09;;;;;;;10.23;5.08;;;;;;;2.13;77.67;99307.48;1668046;85;21056;-77
2022/02/06 00:46:38;;;;;;;6.58;5.08;;;;;;;2.13;77.69;99302.99;1635701;87;21066;-78
2022/02/06 00:49:17;;;;;;;7.05;4.37;;;;;;;2.11;77.63;99312.98;1679200;84;21033;-77
2022/02/06 00:54:08;;;;;;;6.35;4.70;;;;;;;2.11;77.75;99299.72;1679219;85;21571;-76
2022/02/06 00:56:39;;;;;;;9.95;4.97;;;;;;;2.12;77.72;99289.92;1674863;85;21048;-75
2022/02/06 00:59:05;;;;;;;6.78;4.70;;;;;;;2.12;77.75;99311.14;1643866;85;21058;-76
2022/02/06 01:01:32;;;;;;;9.95;4.85;;;;;;;2.14;77.71;99294.53;1667276;86;21577;-88
2022/02/06 01:03:59;;;;;;;6.95;5.22;;;;;;;2.15;77.74;99287.70;1675842;85;21512;-80
2022/02/06 01:06:25;;;;;;;8.13;5.30;;;;;;;2.14;77.73;99290.05;1679247;85;21023;-77
2022/02/06 01:08:52;;;;;;;7.80;4.85;;;;;;;2.15;77.76;99286.38;1684424;85;21070;-79
2022/02/06 01:11:18;;;;;;;5.95;4.72;;;;;;;2.15;77.76;99294.84;1675231;85;21625;-80
2022/02/06 01:13:56;;;;;;;6.25;4.10;;;;;;;2.14;77.84;99303.81;1636819;87;21135;-78
2022/02/06 01:16:23;;;;;;;8.40;5.80;;;;;;;2.15;77.87;99299.64;1682867;85;21033;-78
2022/02/06 01:18:55;;;;;;;7.20;4.65;;;;;;;2.16;77.86;99288.49;1678786;85;21017;-78
2022/02/06 01:22:00;;;;;;;4.85;4.30;;;;;;;2.17;77.87;99290.13;1660636;85;21018;-79
2022/02/06 01:23:55;;;;;;;6.60;4.62;;;;;;;2.17;77.87;99282.98;1648803;85;21074;-79
2022/02/06 01:26:25;;;;;;;10.00;5.08;;;;;;;2.17;77.94;99290.95;1610098;88;21839;-79
2022/02/06 01:28:47;;;;;;;7.35;5.35;;;;;;;2.19;77.96;99284.13;1656488;86;20927;-82
2022/02/06 01:31:41;;;;;;;6.15;5.03;;;;;;;2.19;78.05;99289.42;1615584;87;21054;-91
2022/02/06 01:33:54;;;;;;;7.37;5.05;;;;;;;2.19;78.15;99290.25;1643416;86;21537;-79
2022/02/06 01:41:21;;;;;;;6.78;4.67;;;;;;;2.21;78.21;99304.61;1625086;87;21627;-84
2022/02/06 01:43:49;;;;;;;13.85;4.55;;;;;;;2.21;78.32;99297.98;1658569;85;21110;-78
2022/02/06 01:46:26;;;;;;;9.28;5.75;;;;;;;2.22;78.28;99300.94;1679210;85;21062;-79
2022/02/06 02:13:17;;;;;;;10.40;5.25;;;;;;;2.18;79.02;99292.59;1660293;85;20939;-80
2022/02/06 02:21:16;;;;;;;11.18;6.03;;;;;;;2.21;79.19;99299.30;1645513;85;20997;-81
2022/02/06 02:45:22;;;;;;;10.13;5.15;;;;;;;2.25;79.76;99302.38;1674056;85;21616;-78
2022/02/06 02:47:46;;;;;;;10.48;5.97;;;;;;;2.24;79.63;99298.91;1674042;85;21021;-83
2022/02/06 02:50:21;;;;;;;7.65;5.87;;;;;;;2.24;79.66;99299.42;1647002;85;21014;-85
2022/02/06 02:55:47;;;;;;;7.75;4.60;;;;;;;2.23;79.71;99307.06;1662493;86;21041;-81
2022/02/06 02:58:21;;;;;;;9.50;5.70;;;;;;;2.21;79.77;99304.61;1661216;86;21978;-84
2022/02/06 03:00:45;;;;;;;8.00;5.47;;;;;;;2.22;79.83;99302.27;1660346;85;20965;-79
2022/02/06 03:03:14;;;;;;;8.90;5.20;;;;;;;2.21;79.86;99304.61;1668518;85;21072;-77
2022/02/06 03:05:37;;;;;;;7.37;5.55;;;;;;;2.22;79.88;99302.78;1639383;86;21058;-76
2022/02/06 03:08:06;;;;;;;8.08;5.22;;;;;;;2.22;79.93;99300.94;1657887;86;21142;-75
2022/02/06 03:10:35;;;;;;;9.90;6.28;;;;;;;2.24;79.96;99312.69;1630612;86;21130;-76
2022/02/06 03:13:05;;;;;;;11.70;5.90;;;;;;;2.21;80.02;99309.91;1655707;85;21004;-74
2022/02/06 03:18:03;;;;;;;10.32;5.12;;;;;;;2.17;80.25;99300.23;1606976;87;21076;-74
2022/02/06 03:20:31;;;;;;;11.25;7.28;;;;;;;2.17;80.29;99320.13;1619908;87;21138;-75
2022/02/06 03:23:02;;;;;;;8.33;6.58;;;;;;;2.18;80.33;99308.50;1637826;87;21086;-75
2022/02/06 03:25:26;;;;;;;9.50;5.92;;;;;;;2.19;80.40;99308.00;1595427;89;21571;-74
2022/02/06 03:27:53;;;;;;;7.78;4.65;;;;;;;2.18;80.43;99311.66;1642048;87;21090;-75
2022/02/06 03:30:20;;;;;;;6.15;5.00;;;;;;;2.19;80.46;99315.95;1639069;87;21079;-74
2022/02/06 03:32:47;;;;;;;8.68;5.42;;;;;;;2.17;80.54;99328.59;1642062;87;21075;-74
2022/02/06 03:35:13;;;;;;;7.47;6.08;;;;;;;2.16;80.67;99326.95;1640154;87;21252;-75
2022/02/06 03:37:42;;;;;;;6.92;5.40;;;;;;;2.16;80.75;99304.41;1643065;87;38346;-75
2022/02/06 03:40:19;;;;;;;7.30;5.55;;;;;;;2.14;80.84;99307.28;1621556;87;21544;-74
2022/02/06 03:42:53;;;;;;;8.40;5.22;;;;;;;2.12;80.99;99307.98;1639476;87;21047;-75
2022/02/06 03:45:09;;;;;;;9.18;5.62;;;;;;;2.11;81.05;99301.58;1614001;87;21110;-76
2022/02/06 03:47:54;;;;;;;8.83;5.83;;;;;;;2.09;81.24;99304.94;1613752;89;21551;-76
2022/02/06 03:50:17;;;;;;;6.17;5.58;;;;;;;2.08;81.39;99325.34;1613145;88;21635;-76
2022/02/06 03:52:47;;;;;;;9.18;5.90;;;;;;;2.08;81.45;99307.27;1614336;87;21097;-77
2022/02/06 03:55:19;;;;;;;7.55;6.10;;;;;;;2.06;81.58;99311.45;1575017;89;21066;-77
2022/02/06 03:57:49;;;;;;;13.13;7.92;;;;;;;2.06;81.68;99323.38;1633894;87;21055;-77
2022/02/06 04:00:17;;;;;;;8.58;6.05;;;;;;;2.05;81.74;99307.70;1642722;86;22121;-78
2022/02/06 04:02:45;;;;;;;8.45;6.15;;;;;;;2.06;81.80;99309.34;1623622;87;21099;-77
2022/02/06 04:05:11;;;;;;;6.17;5.58;;;;;;;2.04;81.92;99310.86;1637628;87;21108;-79
2022/02/06 04:07:38;;;;;;;9.95;5.22;;;;;;;2.03;81.97;99311.87;1639355;87;21035;-78
2022/02/06 04:10:09;;;;;;;6.80;5.60;;;;;;;2.02;82.04;99315.53;1647521;85;22299;-79
2022/02/06 04:12:38;;;;;;;6.28;5.12;;;;;;;2.03;82.10;99319.01;1621566;87;21191;-78
2022/02/06 04:15:08;;;;;;;5.65;4.80;;;;;;;2.02;82.17;99335.93;1637197;87;21164;-77
2022/02/06 04:17:43;;;;;;;8.20;5.53;;;;;;;2.00;82.20;99321.57;1639980;86;21114;-78
2022/02/06 04:20:05;;;;;;;9.13;5.45;;;;;;;2.00;82.27;99333.50;1566386;89;21546;-76
2022/02/06 04:22:32;;;;;;;12.30;6.62;;;;;;;2.00;82.35;99336.16;1625430;87;21048;-78
2022/02/06 04:24:58;;;;;;;8.48;5.50;;;;;;;2.02;82.36;99317.37;1621983;87;21100;-77
2022/02/06 04:27:25;;;;;;;8.65;5.60;;;;;;;2.02;82.34;99331.45;1622402;88;21160;-76
2022/02/06 04:29:53;;;;;;;9.45;5.15;;;;;;;2.01;82.40;99319.73;1621989;88;21532;-77
2022/02/06 04:32:21;;;;;;;6.80;5.65;;;;;;;2.00;82.42;99325.55;1620870;88;21088;-77
2022/02/06 04:34:50;;;;;;;6.80;5.03;;;;;;;2.01;82.48;99339.13;1621750;87;20975;-75
2022/02/06 04:37:27;;;;;;;8.15;5.83;;;;;;;2.00;82.52;99342.78;1621251;88;21300;-76
2022/02/06 04:55:21;;;;;;;12.10;6.47;;;;;;;2.00;82.74;99336.16;1623943;87;21600;-76
2022/02/06 05:14:10;;;;;;;13.13;7.35;;;;;;;1.95;83.04;99368.27;1621073;88;21575;-76
2022/02/06 05:16:21;;;;;;;9.03;5.92;;;;;;;1.97;83.05;99341.03;1620954;88;21051;-79
2022/02/06 05:32:33;;;;;;;7.33;5.87;;;;;;;1.99;83.11;99349.10;1643469;86;21009;-78
2022/02/06 05:34:11;;;;;;;9.43;5.60;;;;;;;2.01;83.12;99356.87;1645219;85;21017;-79
2022/02/06 05:36:39;;;;;;;10.15;5.90;;;;;;;2.02;83.10;99359.30;1671989;84;21507;-76
2022/02/06 05:39:05;;;;;;;7.03;6.33;;;;;;;2.04;83.07;99363.08;1672343;85;21063;-77
2022/02/06 05:41:31;;;;;;;10.32;5.62;;;;;;;2.02;83.05;99359.80;1672290;85;22170;-77
2022/02/06 05:43:58;;;;;;;9.55;6.00;;;;;;;2.03;83.10;99362.77;1649768;85;21672;-76
2022/02/06 05:46:25;;;;;;;8.63;6.72;;;;;;;2.02;83.11;99374.39;1676328;84;21004;-77
2022/02/06 05:48:52;;;;;;;7.65;5.60;;;;;;;2.02;83.10;99364.59;1670780;84;21072;-76
2022/02/06 05:51:18;;;;;;;12.03;6.08;;;;;;;2.04;83.08;99359.92;1671026;84;21111;-76
2022/02/06 05:53:46;;;;;;;16.45;6.08;;;;;;;2.04;83.03;99361.24;1653730;85;21161;-76
2022/02/06 05:56:16;;;;;;;8.73;5.95;;;;;;;2.05;82.94;99377.98;1676364;84;21548;-76
2022/02/06 05:58:43;;;;;;;9.65;7.25;;;;;;;2.05;82.93;99366.05;1670919;84;20969;-75
2022/02/06 06:01:10;;;;;;;6.33;5.15;;;;;;;2.04;82.97;99381.14;1670745;84;21084;-78
2022/02/06 06:03:37;;;;;;;9.95;5.22;;;;;;;2.06;82.93;99365.03;1671087;84;21108;-80
2022/02/06 06:06:03;;;;;;;9.65;6.03;;;;;;;2.08;82.82;99374.41;1670698;84;22410;-79
2022/02/06 06:08:30;;;;;;;11.33;6.55;;;;;;;2.10;82.69;99372.88;1670628;85;21550;-76
2022/02/06 06:10:56;;;;;;;6.55;5.70;;;;;;;2.08;82.52;99377.56;1676330;84;21065;-79
2022/02/06 06:13:22;;;;;;;8.78;6.35;;;;;;;2.10;82.54;99370.23;1670935;85;21855;-75
2022/02/06 06:15:49;;;;;;;7.97;5.80;;;;;;;2.11;82.46;99375.31;1670931;84;21562;-76
2022/02/06 06:18:15;;;;;;;9.10;5.47;;;;;;;2.14;82.40;99369.63;1676580;84;21080;-76
2022/02/06 06:20:44;;;;;;;7.40;5.95;;;;;;;2.16;82.30;99375.52;1672994;85;21076;-77
2022/02/06 06:23:10;;;;;;;11.90;7.78;;;;;;;2.16;82.15;99380.83;1672716;85;21077;-76
2022/02/06 06:25:39;;;;;;;7.85;6.75;;;;;;;2.18;82.18;99375.33;1672983;85;21044;-77
2022/02/06 06:28:06;;;;;;;11.73;6.45;;;;;;;2.21;82.09;99380.22;1678301;85;21077;-76
2022/02/06 06:30:35;;;;;;;10.50;6.62;;;;;;;2.18;81.95;99377.48;1678596;85;21063;-76
2022/02/06 06:33:04;;;;;;;12.47;6.97;;;;;;;2.20;81.88;99379.94;1672942;85;20993;-76
2022/02/06 06:35:31;;;;;;;6.60;5.92;;;;;;;2.21;81.81;99386.84;1673152;85;20984;-78
2022/02/06 06:38:02;;;;;;;8.45;5.67;;;;;;;2.22;81.80;99385.02;1678484;85;21606;-78
2022/02/06 06:40:28;;;;;;;9.65;6.35;;;;;;;2.24;81.83;99386.97;1672644;85;21013;-78
2022/02/06 06:42:55;;;;;;;9.40;6.78;;;;;;;2.25;81.78;99386.77;1672365;85;21175;-79
2022/02/06 06:45:22;;;;;;;9.13;6.75;;;;;;;2.28;81.62;99382.38;1678328;85;21041;-78
2022/02/06 06:47:56;;;;;;;13.55;6.53;;;;;;;2.29;81.50;99385.34;1678707;85;21124;-77
2022/02/06 06:50:31;;;;;;;7.75;5.03;;;;;;;2.32;81.40;99381.45;1672973;85;21092;-79
2022/02/06 06:52:52;;;;;;;9.88;6.67;;;;;;;2.35;81.41;99385.05;1673160;85;21569;-76
2022/02/06 06:55:21;;;;;;;9.68;7.17;;;;;;;2.37;81.20;99390.44;1672865;85;20980;-75
2022/02/06 06:57:56;;;;;;;11.65;6.33;;;;;;;2.40;81.11;99382.05;1678411;85;21017;-76
2022/02/06 07:02:50;;;;;;;10.03;6.22;;;;;;;2.43;80.81;99375.03;1672923;85;21041;-78
2022/02/06 07:05:17;;;;;;;9.13;6.40;;;;;;;2.46;80.79;99386.55;1634127;85;21513;-78
2022/02/06 07:07:44;;;;;;;11.10;6.28;;;;;;;2.49;80.73;99376.87;1674401;84;21958;-77
2022/02/06 07:10:10;;;;;;;11.10;7.75;;;;;;;2.53;80.66;99377.27;1674799;85;21073;-78
2022/02/06 07:12:36;;;;;;;11.10;7.80;;;;;;;2.55;80.36;99380.52;1673953;84;21068;-75
2022/02/06 07:15:04;;;;;;;9.58;7.28;;;;;;;2.55;80.25;99380.02;1676908;85;20996;-76
2022/02/06 07:17:30;;;;;;;12.88;7.60;;;;;;;2.55;80.22;99381.34;1674443;85;21140;-76
2022/02/06 07:19:56;;;;;;;11.70;7.58;;;;;;;2.57;80.21;99378.48;1660763;85;21081;-76
2022/02/06 07:22:24;;;;;;;11.10;8.58;;;;;;;2.56;80.09;99380.83;1645794;87;21051;-77
2022/02/06 07:24:53;;;;;;;14.55;9.68;;;;;;;2.54;80.02;99382.89;1609815;88;21027;-75
2022/02/06 07:27:23;;;;;;;13.55;8.38;;;;;;;2.53;80.13;99379.92;1610229;88;21102;-76
2022/02/06 07:29:48;;;;;;;12.78;8.25;;;;;;;2.54;80.18;99385.00;1610146;88;21019;-82
2022/02/06 07:32:16;;;;;;;13.25;9.63;;;;;;;2.57;80.19;99379.30;1609863;88;21054;-75
2022/02/06 07:34:42;;;;;;;12.07;8.60;;;;;;;2.60;80.07;99386.03;1628314;88;21002;-75
2022/02/06 07:37:09;;;;;;;13.20;8.85;;;;;;;2.61;79.98;99387.67;1581398;90;21141;-75
2022/02/06 07:39:36;;;;;;;13.45;8.65;;;;;;;2.60;79.84;99383.37;1609718;88;21050;-76
2022/02/06 07:42:04;;;;;;;9.35;7.72;;;;;;;2.58;79.87;99386.25;1631450;87;21535;-79
2022/02/06 07:44:34;;;;;;;12.93;8.20;;;;;;;2.58;79.85;99382.27;1571548;90;21892;-77
2022/02/06 07:47:11;;;;;;;13.05;8.88;;;;;;;2.59;79.86;99385.75;1628138;88;21049;-77
2022/02/06 07:49:29;;;;;;;14.83;8.73;;;;;;;2.59;79.84;99373.80;1630344;87;21075;-76
2022/02/06 07:51:56;;;;;;;12.20;10.32;;;;;;;2.61;79.90;99376.54;1581481;90;21077;-75
2022/02/06 07:54:22;;;;;;;10.78;7.28;;;;;;;2.64;79.91;99378.77;1628294;87;21075;-76
2022/02/06 07:56:48;;;;;;;12.75;9.08;;;;;;;2.69;79.86;99385.30;1581445;89;21946;-77
2022/02/06 07:59:16;;;;;;;11.55;8.50;;;;;;;2.70;79.35;99380.30;1609565;88;21077;-76
2022/02/06 08:01:43;;;;;;;15.95;9.05;;;;;;;2.71;79.41;99383.27;1571014;90;21057;-76
2022/02/06 08:04:09;;;;;;;12.85;10.28;;;;;;;2.71;79.45;99376.63;1630657;87;21580;-76
2022/02/06 08:06:37;;;;;;;12.25;9.05;;;;;;;2.72;79.58;99385.72;1628256;88;20992;-77
2022/02/06 08:09:04;;;;;;;12.90;9.55;;;;;;;2.70;79.37;99402.36;1581577;90;21658;-75
2022/02/06 08:11:36;;;;;;;15.30;11.25;;;;;;;2.67;79.23;99396.66;1631182;87;20986;-75
2022/02/06 08:14:00;;;;;;;14.43;10.85;;;;;;;2.60;79.44;99396.64;1581456;90;21053;-77
2022/02/06 08:16:26;;;;;;;14.95;9.08;;;;;;;2.58;79.56;99394.22;1609943;88;21103;-79
2022/02/06 08:18:54;;;;;;;16.82;10.63;;;;;;;2.59;79.69;99400.34;1609901;85;21035;-77
2022/02/06 08:21:21;;;;;;;16.25;12.05;;;;;;;2.60;79.72;99390.83;1670789;85;21082;-77
2022/02/06 08:23:47;;;;;;;15.70;10.50;;;;;;;2.63;79.84;99386.45;1675953;84;21242;-77
2022/02/06 08:26:14;;;;;;;16.07;9.68;;;;;;;2.69;79.74;99388.77;1670634;85;21108;-75
2022/02/06 08:28:41;;;;;;;11.50;9.33;;;;;;;2.71;79.48;99389.90;1670960;84;21498;-77
2022/02/06 08:31:07;;;;;;;13.45;10.10;;;;;;;2.73;79.45;99395.33;1676195;84;21112;-76
2022/02/06 08:33:36;;;;;;;12.37;9.50;;;;;;;2.73;79.36;99391.85;1670702;85;21143;-79
2022/02/06 08:36:08;;;;;;;14.87;10.25;;;;;;;2.75;79.29;99387.95;1670748;85;21530;-76
2022/02/06 08:38:35;;;;;;;15.95;11.28;;;;;;;2.78;79.22;99396.03;1676439;85;20973;-77
2022/02/06 08:41:02;;;;;;;13.60;10.58;;;;;;;2.77;78.90;99395.72;1670652;84;21061;-77
2022/02/06 08:43:29;;;;;;;17.52;9.25;;;;;;;2.77;78.82;99386.43;1670970;85;21104;-78
2022/02/06 08:45:56;;;;;;;14.40;10.48;;;;;;;2.77;78.75;99385.10;1653422;85;21563;-75
2022/02/06 08:48:22;;;;;;;17.00;9.95;;;;;;;2.80;78.73;99392.13;1670832;84;20997;-78
2022/02/06 08:50:48;;;;;;;11.18;9.05;;;;;;;2.82;78.45;99390.61;1671242;84;21074;-74
2022/02/06 08:53:14;;;;;;;13.08;9.43;;;;;;;2.81;78.37;99399.59;1670967;85;21033;-75
2022/02/06 08:55:47;;;;;;;11.03;8.80;;;;;;;2.84;78.33;99395.19;1670951;85;21082;-75
2022/02/06 08:58:09;;;;;;;15.83;10.40;;;;;;;2.87;78.08;99392.13;1671339;84;21076;-74
2022/02/06 09:00:36;;;;;;;16.48;9.20;;;;;;;2.87;77.93;99388.15;1676002;84;21574;-74
2022/02/06 09:03:03;;;;;;;13.80;9.45;;;;;;;2.90;77.86;99395.18;1670882;85;21064;-78
2022/02/06 09:05:30;;;;;;;14.60;9.50;;;;;;;2.94;77.50;99396.91;1670645;84;21092;-73
2022/02/06 09:07:56;;;;;;;12.13;8.53;;;;;;;2.95;76.85;99398.55;1669583;84;21048;-80
2022/02/06 09:10:23;;;;;;;13.83;8.63;;;;;;;2.94;76.78;99386.28;1662136;85;22422;-82
2022/02/06 09:12:54;;;;;;;10.45;7.92;;;;;;;2.94;76.74;99383.11;1668401;84;21077;-80
2022/02/06 09:15:29;;;;;;;10.80;7.70;;;;;;;2.97;76.69;99384.55;1667823;84;20967;-83
2022/02/06 09:17:59;;;;;;;13.05;9.10;;;;;;;2.96;76.32;99397.52;1671241;85;21525;-81
2022/02/06 09:20:26;;;;;;;13.08;8.38;;;;;;;2.94;76.11;99389.75;1672225;84;21074;-84
2022/02/06 09:22:55;;;;;;;14.15;8.88;;;;;;;2.95;75.97;99381.28;1666466;84;21037;-83
2022/02/06 09:25:23;;;;;;;13.38;8.78;;;;;;;2.95;75.99;99362.17;1656752;86;21061;-85
2022/02/06 09:28:01;;;;;;;11.63;8.65;;;;;;;2.96;76.02;99356.36;1670105;85;21112;-86
2022/02/06 09:30:32;;;;;;;8.70;6.28;;;;;;;3.01;76.07;99369.83;1657033;85;20923;-89
2022/02/06 09:35:30;;;;;;;12.47;8.28;;;;;;;3.10;75.12;99361.11;1655948;85;21545;-82
2022/02/06 09:37:57;;;;;;;9.95;6.30;;;;;;;3.14;75.25;99351.18;1669569;85;21034;-80
2022/02/06 09:40:24;;;;;;;11.15;7.55;;;;;;;3.21;75.05;99350.66;1641636;86;21106;-81
2022/02/06 09:42:53;;;;;;;12.70;8.35;;;;;;;3.24;74.60;99347.56;1653511;85;21086;-84
2022/02/06 09:45:28;;;;;;;14.70;8.68;;;;;;;3.26;74.14;99352.14;1652431;86;21112;-87
2022/02/06 09:47:57;;;;;;;12.35;7.35;;;;;;;3.29;73.68;99349.08;1655469;86;22022;-85
2022/02/06 09:50:24;;;;;;;10.65;7.17;;;;;;;3.31;73.05;99341.69;1655794;85;21849;-84
2022/02/06 09:52:50;;;;;;;12.70;7.03;;;;;;;3.33;72.65;99334.84;1644598;85;20958;-79
2022/02/06 09:55:21;;;;;;;14.50;7.10;;;;;;;3.34;72.43;99336.48;1657350;85;21021;-80
2022/02/06 09:57:57;;;;;;;13.80;7.08;;;;;;;3.35;71.50;99336.28;1657071;85;21049;-83
2022/02/06 10:00:28;;;;;;;11.60;7.10;;;;;;;3.38;71.15;99350.98;1656765;85;22004;-80
2022/02/06 10:03:02;;;;;;;9.28;6.53;;;;;;;3.39;70.64;99336.16;1642732;86;21026;-79
2022/02/06 10:05:33;;;;;;;9.48;7.85;;;;;;;3.43;70.71;99338.69;1651838;86;21039;-78
2022/02/06 10:08:12;;;;;;;11.15;7.05;;;;;;;3.45;70.38;99341.93;1656192;85;20995;-79
2022/02/06 10:10:36;;;;;;;12.60;7.22;;;;;;;3.45;70.17;99341.93;1638046;86;21090;-80
2022/02/06 10:13:03;;;;;;;10.38;6.72;;;;;;;3.42;69.96;99332.25;1653041;86;22106;-79
2022/02/06 10:15:29;;;;;;;9.15;7.65;;;;;;;3.45;70.24;99321.20;1652632;86;20968;-81
2022/02/06 10:17:57;;;;;;;17.35;12.82;;;;;;;3.53;70.22;99321.45;1653272;86;21068;-80
2022/02/06 10:20:30;;;;;;;14.83;8.10;;;;;;;3.58;69.48;99305.69;1664364;85;21062;-85
2022/02/06 10:22:59;;;;;;;11.88;7.65;;;;;;;3.63;69.78;99295.22;1613158;86;21578;-84
2022/02/06 10:25:25;;;;;;;11.60;7.10;;;;;;;3.69;69.62;99289.88;1662211;86;21917;-82
2022/02/06 10:28:04;;;;;;;11.43;6.92;;;;;;;3.78;69.54;99302.38;1636243;86;20985;-79
2022/02/06 10:30:39;;;;;;;10.78;7.05;;;;;;;3.79;68.25;99301.36;1660894;85;21025;-79
2022/02/06 10:33:17;;;;;;;10.03;6.33;;;;;;;3.80;68.54;99283.84;1664646;85;21018;-94
2022/02/06 10:35:48;;;;;;;8.88;6.85;;;;;;;3.80;68.23;99302.45;1646331;84;21082;-89
2022/02/06 10:38:24;;;;;;;13.10;7.33;;;;;;;3.83;68.00;99291.91;1630078;86;21286;-88
2022/02/06 10:41:17;;;;;;;8.23;6.90;;;;;;;3.85;67.85;99307.95;1597546;87;20982;-88
2022/02/06 10:43:59;;;;;;;10.45;6.90;;;;;;;3.88;67.42;99299.55;1635851;86;20964;-91
2022/02/06 10:46:29;;;;;;;16.07;6.55;;;;;;;3.89;66.52;99296.34;1635452;87;21009;-87
2022/02/06 10:48:59;;;;;;;12.80;6.80;;;;;;;3.90;66.69;99297.47;1654728;86;21051;-84
2022/02/06 10:51:39;;;;;;;8.48;6.10;;;;;;;3.89;66.71;99302.48;1661437;86;21582;-82
2022/02/06 10:54:10;;;;;;;7.67;5.75;;;;;;;3.86;66.55;99297.61;1641926;86;21025;-85
2022/02/06 10:57:11;;;;;;;7.05;6.08;;;;;;;3.88;66.95;99289.42;1660834;85;20918;-85
2022/02/06 10:59:49;;;;;;;11.12;5.83;;;;;;;3.92;66.97;99294.09;1664580;85;21140;-84
2022/02/06 11:02:30;;;;;;;7.55;6.00;;;;;;;3.99;66.68;99280.72;1632895;86;21015;-82
2022/02/06 11:05:17;;;;;;;11.80;7.28;;;;;;;4.03;66.82;99284.57;1659277;85;21020;-81
2022/02/06 11:08:00;;;;;;;10.15;6.40;;;;;;;4.11;66.91;99272.34;1659052;86;21054;-82
2022/02/06 11:10:35;;;;;;;9.50;6.75;;;;;;;4.19;66.51;99280.55;1656312;86;20903;-89
2022/02/06 11:13:07;;;;;;;11.55;6.60;;;;;;;4.26;66.49;99273.34;1637435;86;22278;-88
2022/02/06 11:15:46;;;;;;;13.68;6.00;;;;;;;4.24;65.96;99273.55;1642474;86;21588;-89
2022/02/06 11:18:17;;;;;;;11.50;6.62;;;;;;;4.28;65.87;99271.25;1661357;85;21165;-85
2022/02/06 11:20:57;;;;;;;11.70;5.67;;;;;;;4.33;65.86;99267.41;1657627;85;21108;-88
2022/02/06 11:23:41;;;;;;;11.05;6.78;;;;;;;4.29;65.08;99281.69;1637046;86;21072;-85
2022/02/06 11:26:15;;;;;;;10.93;5.83;;;;;;;4.27;65.00;99274.42;1647408;86;21092;-85
2022/02/06 11:28:41;;;;;;;;;;;;;;;4.26;65.18;99261.36;1611317;86;21068;-86
2022/02/06 11:31:08;;;;;;;12.33;6.03;;;;;;;4.27;65.25;99266.45;1657339;85;21187;-82
2022/02/06 11:33:36;;;;;;;12.45;6.05;;;;;;;4.28;65.22;99252.63;1657893;85;21573;-81
2022/02/06 11:36:11;;;;;;;10.23;6.50;;;;;;;4.32;65.18;99265.78;1620854;86;21043;-82
2022/02/06 11:45:09;;;;;;;9.60;6.28;;;;;;;4.38;64.55;99276.89;1660218;84;21170;-81
2022/02/06 11:47:43;;;;;;;9.78;5.33;;;;;;;4.34;64.59;99283.70;1654459;85;20974;-81
2022/02/06 11:50:10;;;;;;;8.45;5.17;;;;;;;4.29;64.66;99275.03;1654793;86;21042;-77
2022/02/06 11:52:53;;;;;;;6.92;5.40;;;;;;;4.25;64.64;99279.17;1659057;85;21122;-81
2022/02/06 11:55:39;;;;;;;8.85;5.30;;;;;;;4.20;64.59;99273.69;1661869;85;21567;-78
2022/02/06 11:58:31;;;;;;;10.78;5.08;;;;;;;4.16;65.13;99265.85;1654047;86;20962;-85
2022/02/06 12:01:10;;;;;;;11.43;5.60;;;;;;;4.12;65.52;99261.19;1658856;85;21047;-80
2022/02/06 12:04:03;;;;;;;12.93;4.75;;;;;;;4.09;65.93;99257.09;1623014;88;21054;-81
2022/02/06 12:06:50;;;;;;;5.55;4.50;;;;;;;4.10;66.39;99259.25;1659317;85;21618;-78
2022/02/06 12:09:28;;;;;;;15.03;5.65;;;;;;;4.13;66.69;99254.30;1660446;85;21029;-71
2022/02/06 12:12:08;;;;;;;16.48;7.72;;;;;;;4.12;66.95;99258.02;1643553;84;21785;-79
2022/02/06 12:14:40;;;;;;;8.45;5.62;;;;;;;4.13;67.35;99255.63;1644529;85;21016;-80
2022/02/06 12:17:24;;;;;;;12.13;6.70;;;;;;;4.12;67.57;99246.03;1645464;85;21047;-83
2022/02/06 12:20:09;;;;;;;10.03;5.62;;;;;;;4.14;67.49;99245.80;1642971;86;21090;-84
2022/02/06 12:22:43;;;;;;;11.18;6.17;;;;;;;4.09;67.56;99245.13;1661366;85;20950;-81
2022/02/06 12:25:34;;;;;;;10.32;5.00;;;;;;;4.12;67.89;99231.91;1664348;85;21090;-83
2022/02/06 12:28:27;;;;;;;13.22;7.25;;;;;;;4.23;67.61;99241.81;1660012;86;21065;-84
2022/02/06 12:31:14;;;;;;;12.40;5.97;;;;;;;4.41;66.78;99259.68;1664201;85;21535;-81
2022/02/06 12:33:54;;;;;;;9.68;5.80;;;;;;;4.54;65.95;99244.38;1600073;84;21032;-81
2022/02/06 12:39:25;;;;;;;10.10;5.78;;;;;;;4.75;65.08;99239.91;1643502;85;21153;-81
2022/02/06 12:41:55;;;;;;;11.25;5.95;;;;;;;4.80;65.27;99227.25;1674215;85;21022;-79
2022/02/06 12:44:25;;;;;;;9.98;5.92;;;;;;;4.80;65.46;99230.73;1644462;85;21052;-79
2022/02/06 12:46:52;;;;;;;8.73;5.80;;;;;;;4.80;65.66;99231.25;1661490;85;21111;-73
2022/02/06 12:49:22;;;;;;;10.90;5.25;;;;;;;4.74;65.92;99222.33;1631340;85;21042;-78
2022/02/06 12:51:58;;;;;;;8.85;5.90;;;;;;;4.74;66.34;99228.17;1647954;85;22243;-76
2022/02/06 12:54:25;;;;;;;10.28;6.58;;;;;;;4.66;66.56;99225.27;1640872;85;21614;-83
2022/02/06 12:56:56;;;;;;;9.15;7.03;;;;;;;4.61;67.08;99231.78;1631479;85;21027;-85
2022/02/06 12:59:29;;;;;;;;;;;;;;;4.58;67.43;99235.42;1645995;85;21577;-86
2022/02/06 13:01:57;;;;;;;10.78;7.08;;;;;;;4.54;67.76;99236.39;1666119;85;20296;-86
2022/02/06 13:04:29;;;;;;;15.43;9.43;;;;;;;4.43;68.84;99221.65;1662270;86;21828;-77
2022/02/06 13:07:00;;;;;;;13.00;8.10;;;;;;;4.43;68.84;99221.65;1631079;86;21602;-80
2022/02/06 13:09:30;;;;;;;16.27;7.85;;;;;;;4.39;69.26;99217.30;1662910;85;21073;-86
2022/02/06 13:12:11;;;;;;;10.80;7.60;;;;;;;4.34;69.71;99215.30;1643492;86;21673;-80
2022/02/06 13:36:43;;;;;;;15.25;9.70;;;;;;;4.34;71.22;99213.16;1616710;86;21075;-87
2022/02/06 13:38:43;;;;;;;14.55;9.55;;;;;;;4.30;71.00;99204.80;1631699;86;21049;-80
2022/02/06 13:41:18;;;;;;;21.57;10.58;;;;;;;4.22;71.13;99197.62;1609793;88;21085;-82
2022/02/06 13:43:49;;;;;;;15.95;8.53;;;;;;;4.21;71.32;99203.98;1634693;86;21462;-74
2022/02/06 13:46:17;;;;;;;14.60;8.90;;;;;;;4.18;71.41;99201.23;1658723;85;21030;-72
2022/02/06 13:48:48;;;;;;;23.98;12.55;;;;;;;4.18;71.41;99201.23;1658882;86;21512;-77
2022/02/06 13:51:15;;;;;;;20.72;12.13;;;;;;;4.15;71.52;99200.34;1660241;86;21053;-74
2022/02/06 13:54:01;;;;;;;23.47;13.62;;;;;;;4.12;71.66;99198.14;1641521;86;20986;-79
2022/02/06 13:56:30;;;;;;;22.80;12.40;;;;;;;4.11;71.83;99199.68;1662154;86;21190;-76
2022/02/06 13:59:03;;;;;;;23.92;14.00;;;;;;;4.07;71.93;99197.17;1662233;86;20966;-76
2022/02/06 14:01:45;;;;;;;19.82;12.63;;;;;;;4.02;72.08;99205.80;1660914;86;21066;-82
2022/02/06 14:04:33;;;;;;;25.92;13.32;;;;;;;3.98;72.32;99207.80;1658494;86;21071;-77
2022/02/06 14:07:13;;;;;;;23.83;13.60;;;;;;;3.95;72.40;99200.54;1648706;86;21178;-76
2022/02/06 14:12:16;;;;;;;18.55;11.85;;;;;;;3.92;72.66;99199.66;1661671;86;21097;-75
2022/02/06 14:14:54;;;;;;;23.38;12.10;;;;;;;3.95;72.60;99198.39;1642743;86;20989;-78
2022/02/06 14:17:27;;;;;;;20.40;10.68;;;;;;;3.92;72.46;99199.66;1662207;86;21045;-78
2022/02/06 14:19:55;;;;;;;;;;;;;;;3.90;72.20;99198.23;1645558;86;22148;-74
2022/02/06 14:22:31;;;;;;;17.70;9.58;;;;;;;3.89;72.01;99195.27;1669351;85;21106;-76
2022/02/06 14:25:00;;;;;;;10.58;8.08;;;;;;;3.89;71.78;99191.28;1672194;85;21060;-75